sensor_id;sensor_type;location;lat;lon;timestamp;pressure;altitude;pressure_sealevel;temperature;humidity
7532;BME280;3807;49.030;8.714;2022-07-18T00:00:38;100035.66;;;26.77;33.55
7532;BME280;3807;49.030;8.714;2022-07-18T00:03:03;100028.50;;;26.69;33.67
7532;BME280;3807;49.030;8.714;2022-07-18T00:05:29;100027.81;;;26.67;33.70
7532;BME280;3807;49.030;8.714;2022-07-18T00:07:54;100021.22;;;26.63;33.71
7532;BME280;3807;49.030;8.714;2022-07-18T00:10:19;100023.00;;;26.63;33.77
7532;BME280;3807;49.030;8.714;2022-07-18T00:12:45;100028.91;;;26.55;33.79
7532;BME280;3807;49.030;8.714;2022-07-18T00:15:10;100023.97;;;26.52;33.88
7532;BME280;3807;49.030;8.714;2022-07-18T00:17:36;100026.41;;;26.44;33.93
7532;BME280;3807;49.030;8.714;2022-07-18T00:20:05;100026.94;;;26.37;34.06
7532;BME280;3807;49.030;8.714;2022-07-18T00:22:31;100019.81;;;26.40;33.97
7532;BME280;3807;49.030;8.714;2022-07-18T00:24:56;100021.44;;;26.31;33.88
7532;BME280;3807;49.030;8.714;2022-07-18T00:27:21;100024.75;;;26.33;33.98
7532;BME280;3807;49.030;8.714;2022-07-18T00:29:47;100020.72;;;26.29;34.01
7532;BME280;3807;49.030;8.714;2022-07-18T00:32:12;100027.06;;;26.26;34.05
7532;BME280;3807;49.030;8.714;2022-07-18T00:34:38;100022.22;;;26.12;34.16
7532;BME280;3807;49.030;8.714;2022-07-18T00:37:04;100023.06;;;26.12;34.18
7532;BME280;3807;49.030;8.714;2022-07-18T00:39:30;100023.31;;;26.09;34.28
7532;BME280;3807;49.030;8.714;2022-07-18T00:41:55;100019.59;;;26.02;34.31
7532;BME280;3807;49.030;8.714;2022-07-18T00:44:23;100014.78;;;25.98;34.38
7532;BME280;3807;49.030;8.714;2022-07-18T00:46:53;100009.94;;;25.93;34.45
7532;BME280;3807;49.030;8.714;2022-07-18T00:49:19;100016.13;;;25.92;34.43
7532;BME280;3807;49.030;8.714;2022-07-18T00:51:45;100010.34;;;25.88;34.52
7532;BME280;3807;49.030;8.714;2022-07-18T00:54:11;100019.41;;;25.84;34.54
7532;BME280;3807;49.030;8.714;2022-07-18T00:56:37;100018.34;;;25.76;34.58
7532;BME280;3807;49.030;8.714;2022-07-18T00:59:03;100018.75;;;25.71;34.67
7532;BME280;3807;49.030;8.714;2022-07-18T01:01:28;100020.94;;;25.66;34.78
7532;BME280;3807;49.030;8.714;2022-07-18T01:04:14;100024.38;;;25.66;34.76
7532;BME280;3807;49.030;8.714;2022-07-18T01:06:39;100029.56;;;25.57;34.92
7532;BME280;3807;49.030;8.714;2022-07-18T01:09:05;100032.28;;;25.55;34.92
7532;BME280;3807;49.030;8.714;2022-07-18T01:11:32;100022.94;;;25.53;34.93
7532;BME280;3807;49.030;8.714;2022-07-18T01:13:58;100022.38;;;25.49;34.99
7532;BME280;3807;49.030;8.714;2022-07-18T01:16:23;100025.50;;;25.43;34.96
7532;BME280;3807;49.030;8.714;2022-07-18T01:18:50;100026.31;;;25.43;35.03
7532;BME280;3807;49.030;8.714;2022-07-18T01:21:16;100018.84;;;25.29;35.20
7532;BME280;3807;49.030;8.714;2022-07-18T01:23:43;100021.56;;;25.28;35.26
7532;BME280;3807;49.030;8.714;2022-07-18T01:26:09;100025.25;;;25.25;35.23
7532;BME280;3807;49.030;8.714;2022-07-18T01:28:35;100024.94;;;25.18;35.29
7532;BME280;3807;49.030;8.714;2022-07-18T01:31:01;100016.97;;;25.20;35.27
7532;BME280;3807;49.030;8.714;2022-07-18T01:33:26;100017.63;;;25.12;35.39
7532;BME280;3807;49.030;8.714;2022-07-18T01:35:52;100020.37;;;25.11;35.43
7532;BME280;3807;49.030;8.714;2022-07-18T01:38:17;100020.97;;;25.03;35.50
7532;BME280;3807;49.030;8.714;2022-07-18T01:40:44;100023.31;;;25.06;35.45
7532;BME280;3807;49.030;8.714;2022-07-18T01:43:10;100012.94;;;24.95;35.54
7532;BME280;3807;49.030;8.714;2022-07-18T01:45:35;100018.16;;;24.95;35.50
7532;BME280;3807;49.030;8.714;2022-07-18T01:48:01;100015.81;;;24.92;35.60
7532;BME280;3807;49.030;8.714;2022-07-18T01:50:26;100014.81;;;24.83;35.70
7532;BME280;3807;49.030;8.714;2022-07-18T01:52:52;100020.13;;;24.82;35.70
7532;BME280;3807;49.030;8.714;2022-07-18T01:55:18;100012.12;;;24.74;35.82
7532;BME280;3807;49.030;8.714;2022-07-18T01:57:43;100019.78;;;24.75;35.76
7532;BME280;3807;49.030;8.714;2022-07-18T02:00:09;100022.19;;;24.67;35.84
7532;BME280;3807;49.030;8.714;2022-07-18T02:02:36;100024.94;;;24.65;35.87
7532;BME280;3807;49.030;8.714;2022-07-18T02:05:03;100027.47;;;24.56;36.04
7532;BME280;3807;49.030;8.714;2022-07-18T02:07:32;100022.50;;;24.53;36.10
7532;BME280;3807;49.030;8.714;2022-07-18T02:09:59;100017.78;;;24.46;36.20
7532;BME280;3807;49.030;8.714;2022-07-18T02:12:25;100011.16;;;24.42;36.26
7532;BME280;3807;49.030;8.714;2022-07-18T02:14:50;100008.41;;;24.44;36.22
7532;BME280;3807;49.030;8.714;2022-07-18T02:17:16;100019.44;;;24.36;36.33
7532;BME280;3807;49.030;8.714;2022-07-18T02:19:42;100018.50;;;24.37;36.28
7532;BME280;3807;49.030;8.714;2022-07-18T02:22:07;100015.91;;;24.26;36.50
7532;BME280;3807;49.030;8.714;2022-07-18T02:24:33;100019.84;;;24.20;36.59
7532;BME280;3807;49.030;8.714;2022-07-18T02:26:58;100019.00;;;24.20;36.53
7532;BME280;3807;49.030;8.714;2022-07-18T02:29:24;100010.69;;;24.26;36.37
7532;BME280;3807;49.030;8.714;2022-07-18T02:31:49;100011.78;;;24.23;36.37
7532;BME280;3807;49.030;8.714;2022-07-18T02:34:14;100007.16;;;24.16;36.44
7532;BME280;3807;49.030;8.714;2022-07-18T02:36:41;100010.84;;;24.13;36.48
7532;BME280;3807;49.030;8.714;2022-07-18T02:39:07;100016.31;;;24.10;36.50
7532;BME280;3807;49.030;8.714;2022-07-18T02:41:33;100018.31;;;24.07;36.56
7532;BME280;3807;49.030;8.714;2022-07-18T02:43:58;100017.22;;;24.09;36.50
7532;BME280;3807;49.030;8.714;2022-07-18T02:46:24;100015.22;;;24.01;36.61
7532;BME280;3807;49.030;8.714;2022-07-18T02:48:50;100020.81;;;23.97;36.67
7532;BME280;3807;49.030;8.714;2022-07-18T02:51:15;100017.63;;;23.93;36.70
7532;BME280;3807;49.030;8.714;2022-07-18T02:53:41;100018.56;;;23.92;36.66
7532;BME280;3807;49.030;8.714;2022-07-18T02:56:06;100015.38;;;23.89;36.64
7532;BME280;3807;49.030;8.714;2022-07-18T02:58:32;100017.72;;;23.81;36.89
7532;BME280;3807;49.030;8.714;2022-07-18T03:00:58;100027.22;;;23.82;36.91
7532;BME280;3807;49.030;8.714;2022-07-18T03:03:23;100024.13;;;23.76;36.97
7532;BME280;3807;49.030;8.714;2022-07-18T03:05:49;100023.28;;;23.65;37.19
7532;BME280;3807;49.030;8.714;2022-07-18T03:08:14;100021.72;;;23.62;37.25
7532;BME280;3807;49.030;8.714;2022-07-18T03:10:39;100017.03;;;23.67;37.09
7532;BME280;3807;49.030;8.714;2022-07-18T03:13:05;100022.78;;;23.60;37.28
7532;BME280;3807;49.030;8.714;2022-07-18T03:15:31;100023.28;;;23.53;37.38
7532;BME280;3807;49.030;8.714;2022-07-18T03:17:56;100023.97;;;23.56;37.22
7532;BME280;3807;49.030;8.714;2022-07-18T03:20:22;100019.81;;;23.53;37.20
7532;BME280;3807;49.030;8.714;2022-07-18T03:22:47;100020.19;;;23.48;37.29
7532;BME280;3807;49.030;8.714;2022-07-18T03:25:13;100022.53;;;23.40;37.42
7532;BME280;3807;49.030;8.714;2022-07-18T03:27:38;100019.44;;;23.35;37.49
7532;BME280;3807;49.030;8.714;2022-07-18T03:30:04;100024.06;;;23.32;37.52
7532;BME280;3807;49.030;8.714;2022-07-18T03:32:29;100016.97;;;23.34;37.45
7532;BME280;3807;49.030;8.714;2022-07-18T03:34:54;100017.06;;;23.32;37.49
7532;BME280;3807;49.030;8.714;2022-07-18T03:37:20;100024.75;;;23.22;37.63
7532;BME280;3807;49.030;8.714;2022-07-18T03:39:45;100024.16;;;23.19;37.67
7532;BME280;3807;49.030;8.714;2022-07-18T03:42:11;100020.69;;;23.07;37.81
7532;BME280;3807;49.030;8.714;2022-07-18T03:44:36;100021.19;;;23.12;37.75
7532;BME280;3807;49.030;8.714;2022-07-18T03:47:01;100015.50;;;23.07;37.78
7532;BME280;3807;49.030;8.714;2022-07-18T03:49:27;100020.81;;;23.05;37.79
7532;BME280;3807;49.030;8.714;2022-07-18T03:51:52;100023.72;;;23.01;37.85
7532;BME280;3807;49.030;8.714;2022-07-18T03:54:21;100018.06;;;22.96;37.94
7532;BME280;3807;49.030;8.714;2022-07-18T03:56:46;100018.06;;;22.96;37.94
7532;BME280;3807;49.030;8.714;2022-07-18T03:59:11;100017.03;;;22.98;37.87
7532;BME280;3807;49.030;8.714;2022-07-18T04:01:37;100021.19;;;22.88;38.01
7532;BME280;3807;49.030;8.714;2022-07-18T04:04:03;100018.09;;;22.83;38.10
7532;BME280;3807;49.030;8.714;2022-07-18T04:06:28;100013.84;;;22.82;38.05
7532;BME280;3807;49.030;8.714;2022-07-18T04:08:54;100011.13;;;22.83;38.08
7532;BME280;3807;49.030;8.714;2022-07-18T04:11:19;100014.19;;;22.77;38.18
7532;BME280;3807;49.030;8.714;2022-07-18T04:13:49;100016.06;;;22.75;38.23
7532;BME280;3807;49.030;8.714;2022-07-18T04:16:15;100017.00;;;22.74;38.21
7532;BME280;3807;49.030;8.714;2022-07-18T04:18:40;100018.00;;;22.61;38.52
7532;BME280;3807;49.030;8.714;2022-07-18T04:21:05;100020.47;;;22.62;38.54
7532;BME280;3807;49.030;8.714;2022-07-18T04:23:31;100017.28;;;22.58;38.44
7532;BME280;3807;49.030;8.714;2022-07-18T04:25:56;100021.31;;;22.63;38.46
7532;BME280;3807;49.030;8.714;2022-07-18T04:28:21;100030.25;;;22.58;38.47
7532;BME280;3807;49.030;8.714;2022-07-18T04:30:47;100028.09;;;22.52;38.59
7532;BME280;3807;49.030;8.714;2022-07-18T04:33:12;100028.22;;;22.51;38.75
7532;BME280;3807;49.030;8.714;2022-07-18T04:35:38;100019.63;;;22.50;38.70
7532;BME280;3807;49.030;8.714;2022-07-18T04:38:06;100024.91;;;22.49;38.83
7532;BME280;3807;49.030;8.714;2022-07-18T04:40:32;100023.94;;;22.39;38.89
7532;BME280;3807;49.030;8.714;2022-07-18T04:42:57;100020.06;;;22.44;38.89
7532;BME280;3807;49.030;8.714;2022-07-18T04:45:23;100015.91;;;22.42;38.93
7532;BME280;3807;49.030;8.714;2022-07-18T04:47:52;100019.09;;;22.45;38.82
7532;BME280;3807;49.030;8.714;2022-07-18T04:50:19;100012.78;;;22.49;38.67
7532;BME280;3807;49.030;8.714;2022-07-18T04:52:46;100018.78;;;22.50;38.68
7532;BME280;3807;49.030;8.714;2022-07-18T04:55:12;100018.84;;;22.37;38.87
7532;BME280;3807;49.030;8.714;2022-07-18T04:57:39;100018.94;;;22.35;38.95
7532;BME280;3807;49.030;8.714;2022-07-18T05:00:07;100007.22;;;22.30;39.14
7532;BME280;3807;49.030;8.714;2022-07-18T05:02:33;100017.28;;;22.34;39.10
7532;BME280;3807;49.030;8.714;2022-07-18T05:04:58;100012.53;;;22.28;39.18
7532;BME280;3807;49.030;8.714;2022-07-18T05:07:23;100016.87;;;22.28;39.28
7532;BME280;3807;49.030;8.714;2022-07-18T05:09:49;100017.72;;;22.28;39.21
7532;BME280;3807;49.030;8.714;2022-07-18T05:12:14;100021.19;;;22.16;39.39
7532;BME280;3807;49.030;8.714;2022-07-18T05:14:41;100021.78;;;22.20;39.40
7532;BME280;3807;49.030;8.714;2022-07-18T05:17:06;100026.16;;;22.19;39.42
7532;BME280;3807;49.030;8.714;2022-07-18T05:19:32;100015.22;;;22.27;39.24
7532;BME280;3807;49.030;8.714;2022-07-18T05:21:57;100017.81;;;22.27;39.32
7532;BME280;3807;49.030;8.714;2022-07-18T05:24:22;100019.47;;;22.28;39.28
7532;BME280;3807;49.030;8.714;2022-07-18T05:26:48;100009.34;;;22.25;39.34
7532;BME280;3807;49.030;8.714;2022-07-18T05:29:13;100010.59;;;22.19;39.48
7532;BME280;3807;49.030;8.714;2022-07-18T05:31:40;100014.53;;;22.25;39.33
7532;BME280;3807;49.030;8.714;2022-07-18T05:34:05;100018.50;;;22.18;39.55
7532;BME280;3807;49.030;8.714;2022-07-18T05:36:31;100021.25;;;22.27;39.33
7532;BME280;3807;49.030;8.714;2022-07-18T05:38:56;100021.59;;;22.23;39.40
7532;BME280;3807;49.030;8.714;2022-07-18T05:41:22;100023.13;;;22.25;39.38
7532;BME280;3807;49.030;8.714;2022-07-18T05:43:47;100017.44;;;22.20;39.66
7532;BME280;3807;49.030;8.714;2022-07-18T05:46:13;100013.78;;;22.23;39.51
7532;BME280;3807;49.030;8.714;2022-07-18T05:48:38;100013.47;;;22.27;39.43
7532;BME280;3807;49.030;8.714;2022-07-18T05:51:06;100018.22;;;22.33;39.30
7532;BME280;3807;49.030;8.714;2022-07-18T05:53:31;100017.06;;;22.38;39.23
7532;BME280;3807;49.030;8.714;2022-07-18T05:55:56;100014.34;;;22.15;39.57
7532;BME280;3807;49.030;8.714;2022-07-18T05:58:22;100019.53;;;22.15;39.54
7532;BME280;3807;49.030;8.714;2022-07-18T06:00:48;100019.09;;;22.21;39.37
7532;BME280;3807;49.030;8.714;2022-07-18T06:03:13;100019.72;;;22.12;39.69
7532;BME280;3807;49.030;8.714;2022-07-18T06:05:39;100016.16;;;22.13;39.55
7532;BME280;3807;49.030;8.714;2022-07-18T06:08:05;100016.19;;;22.26;39.15
7532;BME280;3807;49.030;8.714;2022-07-18T06:10:30;100014.75;;;22.22;39.27
7532;BME280;3807;49.030;8.714;2022-07-18T06:12:55;100007.38;;;22.16;39.41
7532;BME280;3807;49.030;8.714;2022-07-18T06:15:21;100011.62;;;22.17;39.36
7532;BME280;3807;49.030;8.714;2022-07-18T06:17:47;100012.03;;;22.10;39.40
7532;BME280;3807;49.030;8.714;2022-07-18T06:20:13;100019.25;;;22.31;39.13
7532;BME280;3807;49.030;8.714;2022-07-18T06:22:38;100018.28;;;22.45;38.84
7532;BME280;3807;49.030;8.714;2022-07-18T06:25:05;100014.38;;;22.39;38.81
7532;BME280;3807;49.030;8.714;2022-07-18T06:27:31;100011.16;;;22.35;38.88
7532;BME280;3807;49.030;8.714;2022-07-18T06:29:56;100017.19;;;22.36;38.88
7532;BME280;3807;49.030;8.714;2022-07-18T06:32:23;100009.56;;;22.46;38.72
7532;BME280;3807;49.030;8.714;2022-07-18T06:34:48;100013.00;;;22.46;38.71
7532;BME280;3807;49.030;8.714;2022-07-18T06:37:14;100010.19;;;22.49;38.64
7532;BME280;3807;49.030;8.714;2022-07-18T06:39:39;100002.09;;;22.65;38.37
7532;BME280;3807;49.030;8.714;2022-07-18T06:42:04;100003.03;;;22.64;38.36
7532;BME280;3807;49.030;8.714;2022-07-18T06:44:30;100006.06;;;22.58;38.49
7532;BME280;3807;49.030;8.714;2022-07-18T06:46:55;100001.44;;;22.74;38.18
7532;BME280;3807;49.030;8.714;2022-07-18T06:49:22;100003.69;;;22.55;38.69
7532;BME280;3807;49.030;8.714;2022-07-18T06:51:50;100000.44;;;22.64;38.51
7532;BME280;3807;49.030;8.714;2022-07-18T06:54:15;100004.59;;;22.67;38.46
7532;BME280;3807;49.030;8.714;2022-07-18T06:56:41;100004.84;;;22.75;38.38
7532;BME280;3807;49.030;8.714;2022-07-18T06:59:06;100004.88;;;22.86;38.24
7532;BME280;3807;49.030;8.714;2022-07-18T07:01:31;99998.88;;;22.86;38.27
7532;BME280;3807;49.030;8.714;2022-07-18T07:03:57;100002.41;;;22.85;38.29
7532;BME280;3807;49.030;8.714;2022-07-18T07:06:22;100010.41;;;22.94;38.07
7532;BME280;3807;49.030;8.714;2022-07-18T07:08:47;100003.06;;;22.99;37.98
7532;BME280;3807;49.030;8.714;2022-07-18T07:11:13;100010.28;;;22.96;38.15
7532;BME280;3807;49.030;8.714;2022-07-18T07:13:38;100007.22;;;23.02;37.91
7532;BME280;3807;49.030;8.714;2022-07-18T07:16:04;100006.28;;;23.14;37.68
7532;BME280;3807;49.030;8.714;2022-07-18T07:18:29;100010.78;;;23.12;37.70
7532;BME280;3807;49.030;8.714;2022-07-18T07:20:55;99999.00;;;23.19;37.59
7532;BME280;3807;49.030;8.714;2022-07-18T07:23:20;100000.03;;;23.17;37.67
7532;BME280;3807;49.030;8.714;2022-07-18T07:25:46;100001.38;;;23.22;37.49
7532;BME280;3807;49.030;8.714;2022-07-18T07:28:11;100001.38;;;23.22;37.58
7532;BME280;3807;49.030;8.714;2022-07-18T07:30:36;99998.78;;;23.34;37.27
7532;BME280;3807;49.030;8.714;2022-07-18T07:33:02;99995.22;;;23.35;37.29
7532;BME280;3807;49.030;8.714;2022-07-18T07:35:28;99999.38;;;23.37;37.00
7532;BME280;3807;49.030;8.714;2022-07-18T07:37:59;99997.50;;;23.50;37.00
7532;BME280;3807;49.030;8.714;2022-07-18T07:40:27;99987.47;;;23.68;36.71
7532;BME280;3807;49.030;8.714;2022-07-18T07:43:07;100000.69;;;23.88;37.01
7532;BME280;3807;49.030;8.714;2022-07-18T07:45:33;99999.78;;;23.89;37.34
7532;BME280;3807;49.030;8.714;2022-07-18T07:47:59;99993.59;;;24.01;37.04
7532;BME280;3807;49.030;8.714;2022-07-18T07:50:24;99989.69;;;24.07;36.56
7532;BME280;3807;49.030;8.714;2022-07-18T07:52:50;99990.97;;;24.12;36.88
7532;BME280;3807;49.030;8.714;2022-07-18T07:55:15;99991.41;;;24.29;36.77
7532;BME280;3807;49.030;8.714;2022-07-18T07:57:40;99988.94;;;24.27;36.73
7532;BME280;3807;49.030;8.714;2022-07-18T08:00:08;99991.50;;;24.38;36.21
7532;BME280;3807;49.030;8.714;2022-07-18T08:02:34;99992.56;;;24.36;36.40
7532;BME280;3807;49.030;8.714;2022-07-18T08:05:00;99992.94;;;24.31;36.49
7532;BME280;3807;49.030;8.714;2022-07-18T08:07:25;99994.09;;;24.50;35.83
7532;BME280;3807;49.030;8.714;2022-07-18T08:09:51;99991.09;;;24.54;35.63
7532;BME280;3807;49.030;8.714;2022-07-18T08:12:16;99990.81;;;24.68;35.77
7532;BME280;3807;49.030;8.714;2022-07-18T08:14:41;99986.56;;;24.67;35.52
7532;BME280;3807;49.030;8.714;2022-07-18T08:17:07;99989.38;;;24.76;35.35
7532;BME280;3807;49.030;8.714;2022-07-18T08:19:33;99989.06;;;24.90;34.85
7532;BME280;3807;49.030;8.714;2022-07-18T08:21:58;99985.13;;;24.95;34.70
7532;BME280;3807;49.030;8.714;2022-07-18T08:24:24;99984.53;;;24.92;34.24
7532;BME280;3807;49.030;8.714;2022-07-18T08:26:49;99982.44;;;25.07;34.42
7532;BME280;3807;49.030;8.714;2022-07-18T08:29:15;99985.75;;;25.09;34.60
7532;BME280;3807;49.030;8.714;2022-07-18T08:31:40;99981.59;;;25.17;32.87
7532;BME280;3807;49.030;8.714;2022-07-18T08:34:05;99980.38;;;25.22;34.26
7532;BME280;3807;49.030;8.714;2022-07-18T08:36:31;99981.00;;;25.35;34.28
7532;BME280;3807;49.030;8.714;2022-07-18T08:38:56;99978.81;;;25.40;34.10
7532;BME280;3807;49.030;8.714;2022-07-18T08:41:23;99976.38;;;25.48;32.93
7532;BME280;3807;49.030;8.714;2022-07-18T08:43:49;99979.72;;;25.60;33.51
7532;BME280;3807;49.030;8.714;2022-07-18T08:46:19;99971.34;;;25.66;32.98
7532;BME280;3807;49.030;8.714;2022-07-18T08:48:46;99974.00;;;25.76;33.00
7532;BME280;3807;49.030;8.714;2022-07-18T08:51:12;99977.91;;;25.81;32.82
7532;BME280;3807;49.030;8.714;2022-07-18T08:53:37;99971.53;;;25.74;33.23
7532;BME280;3807;49.030;8.714;2022-07-18T08:56:04;99976.97;;;25.92;32.57
7532;BME280;3807;49.030;8.714;2022-07-18T08:58:30;99977.78;;;25.93;33.01
7532;BME280;3807;49.030;8.714;2022-07-18T09:00:55;99974.50;;;26.00;32.83
7532;BME280;3807;49.030;8.714;2022-07-18T09:03:23;99972.34;;;26.15;32.42
7532;BME280;3807;49.030;8.714;2022-07-18T09:08:30;99972.63;;;26.22;32.78
7532;BME280;3807;49.030;8.714;2022-07-18T09:10:58;99968.78;;;26.26;31.55
7532;BME280;3807;49.030;8.714;2022-07-18T09:13:37;99972.50;;;26.33;32.60
7532;BME280;3807;49.030;8.714;2022-07-18T09:16:07;99968.38;;;26.40;32.50
7532;BME280;3807;49.030;8.714;2022-07-18T09:18:34;99966.75;;;26.58;32.48
7532;BME280;3807;49.030;8.714;2022-07-18T09:21:01;99971.16;;;26.58;32.08
7532;BME280;3807;49.030;8.714;2022-07-18T09:23:30;99969.75;;;26.73;32.25
7532;BME280;3807;49.030;8.714;2022-07-18T09:25:56;99969.34;;;26.88;31.78
7532;BME280;3807;49.030;8.714;2022-07-18T09:28:21;99969.47;;;26.96;31.87
7532;BME280;3807;49.030;8.714;2022-07-18T09:30:47;99963.13;;;26.98;31.86
7532;BME280;3807;49.030;8.714;2022-07-18T09:33:12;99967.41;;;26.99;31.96
7532;BME280;3807;49.030;8.714;2022-07-18T09:38:13;99968.16;;;27.29;31.65
7532;BME280;3807;49.030;8.714;2022-07-18T09:40:42;99964.03;;;27.26;31.67
7532;BME280;3807;49.030;8.714;2022-07-18T09:43:10;99960.31;;;27.29;30.79
7532;BME280;3807;49.030;8.714;2022-07-18T09:45:39;99957.25;;;27.34;30.92
7532;BME280;3807;49.030;8.714;2022-07-18T09:48:07;99963.59;;;27.41;31.44
7532;BME280;3807;49.030;8.714;2022-07-18T09:50:38;99956.09;;;27.55;31.34
7532;BME280;3807;49.030;8.714;2022-07-18T09:53:17;99958.50;;;27.67;31.21
7532;BME280;3807;49.030;8.714;2022-07-18T09:58:19;99945.94;;;27.98;29.62
7532;BME280;3807;49.030;8.714;2022-07-18T10:00:45;99949.34;;;28.08;29.23
7532;BME280;3807;49.030;8.714;2022-07-18T10:03:11;99952.25;;;28.23;29.48
7532;BME280;3807;49.030;8.714;2022-07-18T10:05:38;99952.97;;;28.43;29.44
7532;BME280;3807;49.030;8.714;2022-07-18T10:08:08;99950.03;;;28.46;29.97
7532;BME280;3807;49.030;8.714;2022-07-18T10:10:33;99946.72;;;28.62;29.57
7532;BME280;3807;49.030;8.714;2022-07-18T10:13:01;99949.06;;;28.73;29.56
7532;BME280;3807;49.030;8.714;2022-07-18T10:15:29;99933.63;;;28.88;29.04
7532;BME280;3807;49.030;8.714;2022-07-18T10:17:55;99941.97;;;29.09;28.51
7532;BME280;3807;49.030;8.714;2022-07-18T10:20:26;99933.53;;;29.24;28.36
7532;BME280;3807;49.030;8.714;2022-07-18T10:22:55;99936.34;;;29.30;28.28
7532;BME280;3807;49.030;8.714;2022-07-18T10:25:22;99936.03;;;29.33;28.87
7532;BME280;3807;49.030;8.714;2022-07-18T10:28:01;99940.19;;;29.44;28.77
7532;BME280;3807;49.030;8.714;2022-07-18T10:30:37;99935.38;;;29.74;27.56
7532;BME280;3807;49.030;8.714;2022-07-18T10:33:04;99933.63;;;29.82;28.34
7532;BME280;3807;49.030;8.714;2022-07-18T10:35:59;99931.81;;;29.91;28.12
7532;BME280;3807;49.030;8.714;2022-07-18T10:38:25;99936.94;;;30.17;27.81
7532;BME280;3807;49.030;8.714;2022-07-18T10:41:14;99926.59;;;30.15;27.96
7532;BME280;3807;49.030;8.714;2022-07-18T10:43:41;99926.47;;;30.33;27.33
7532;BME280;3807;49.030;8.714;2022-07-18T10:46:08;99927.78;;;30.46;26.70
7532;BME280;3807;49.030;8.714;2022-07-18T10:51:10;99925.94;;;30.71;26.80
7532;BME280;3807;49.030;8.714;2022-07-18T10:58:58;99920.44;;;31.21;26.35
7532;BME280;3807;49.030;8.714;2022-07-18T11:01:25;99922.38;;;31.27;25.85
7532;BME280;3807;49.030;8.714;2022-07-18T11:07:12;99915.78;;;31.40;26.28
7532;BME280;3807;49.030;8.714;2022-07-18T11:09:44;99908.41;;;31.66;24.98
7532;BME280;3807;49.030;8.714;2022-07-18T11:20:35;99905.78;;;32.35;24.88
7532;BME280;3807;49.030;8.714;2022-07-18T11:23:03;99905.94;;;32.42;25.24
7532;BME280;3807;49.030;8.714;2022-07-18T11:25:30;99902.19;;;32.89;23.79
7532;BME280;3807;49.030;8.714;2022-07-18T11:27:56;99905.09;;;32.79;24.46
7532;BME280;3807;49.030;8.714;2022-07-18T11:30:23;99896.25;;;32.87;24.99
7532;BME280;3807;49.030;8.714;2022-07-18T11:32:50;99892.53;;;33.11;23.95
7532;BME280;3807;49.030;8.714;2022-07-18T11:35:21;99893.00;;;33.14;24.33
7532;BME280;3807;49.030;8.714;2022-07-18T11:37:48;99896.94;;;33.40;23.53
7532;BME280;3807;49.030;8.714;2022-07-18T11:40:15;99896.88;;;33.33;23.97
7532;BME280;3807;49.030;8.714;2022-07-18T11:42:41;99889.91;;;33.47;24.08
7532;BME280;3807;49.030;8.714;2022-07-18T11:45:11;99890.75;;;33.62;23.70
7532;BME280;3807;49.030;8.714;2022-07-18T11:47:48;99889.16;;;33.68;24.29
7532;BME280;3807;49.030;8.714;2022-07-18T11:50:15;99881.66;;;33.86;22.27
7532;BME280;3807;49.030;8.714;2022-07-18T11:52:40;99882.47;;;34.08;22.18
7532;BME280;3807;49.030;8.714;2022-07-18T11:55:07;99871.53;;;34.40;21.21
7532;BME280;3807;49.030;8.714;2022-07-18T11:57:33;99879.63;;;34.31;21.63
7532;BME280;3807;49.030;8.714;2022-07-18T12:00:00;99873.38;;;34.39;20.64
7532;BME280;3807;49.030;8.714;2022-07-18T12:05:35;99871.81;;;35.21;21.31
7532;BME280;3807;49.030;8.714;2022-07-18T12:08:01;99875.28;;;34.87;22.05
7532;BME280;3807;49.030;8.714;2022-07-18T12:10:26;99869.31;;;34.71;22.69
7532;BME280;3807;49.030;8.714;2022-07-18T12:12:53;99871.37;;;34.76;22.53
7532;BME280;3807;49.030;8.714;2022-07-18T12:15:19;99867.94;;;34.82;22.87
7532;BME280;3807;49.030;8.714;2022-07-18T12:17:48;99869.00;;;35.22;22.54
7532;BME280;3807;49.030;8.714;2022-07-18T12:20:20;99861.47;;;35.39;22.12
7532;BME280;3807;49.030;8.714;2022-07-18T12:25:41;99855.69;;;35.64;21.93
7532;BME280;3807;49.030;8.714;2022-07-18T12:28:17;99865.03;;;35.60;21.99
7532;BME280;3807;49.030;8.714;2022-07-18T12:30:43;99851.81;;;35.93;21.82
7532;BME280;3807;49.030;8.714;2022-07-18T12:33:10;99847.38;;;36.13;21.72
7532;BME280;3807;49.030;8.714;2022-07-18T12:35:37;99852.22;;;36.36;21.34
7532;BME280;3807;49.030;8.714;2022-07-18T12:38:05;99849.37;;;36.51;21.27
7532;BME280;3807;49.030;8.714;2022-07-18T12:40:56;99844.88;;;36.45;21.38
7532;BME280;3807;49.030;8.714;2022-07-18T12:43:34;99843.22;;;36.64;21.14
7532;BME280;3807;49.030;8.714;2022-07-18T12:46:03;99838.34;;;36.54;21.11
7532;BME280;3807;49.030;8.714;2022-07-18T12:48:32;99835.00;;;36.79;21.04
7532;BME280;3807;49.030;8.714;2022-07-18T12:51:02;99838.63;;;36.98;21.25
7532;BME280;3807;49.030;8.714;2022-07-18T12:53:29;99840.50;;;36.84;20.92
7532;BME280;3807;49.030;8.714;2022-07-18T12:55:55;99845.38;;;36.93;21.57
7532;BME280;3807;49.030;8.714;2022-07-18T12:58:20;99838.59;;;37.11;19.95
7532;BME280;3807;49.030;8.714;2022-07-18T13:00:46;99836.56;;;37.38;18.74
7532;BME280;3807;49.030;8.714;2022-07-18T13:03:12;99834.06;;;37.56;20.74
7532;BME280;3807;49.030;8.714;2022-07-18T13:05:38;99830.84;;;37.73;20.61
7532;BME280;3807;49.030;8.714;2022-07-18T13:08:03;99833.59;;;37.66;20.43
7532;BME280;3807;49.030;8.714;2022-07-18T13:10:32;99828.66;;;37.70;18.92
7532;BME280;3807;49.030;8.714;2022-07-18T13:12:57;99826.81;;;37.95;19.85
7532;BME280;3807;49.030;8.714;2022-07-18T13:15:23;99830.63;;;38.06;19.50
7532;BME280;3807;49.030;8.714;2022-07-18T13:17:49;99822.94;;;38.16;20.16
7532;BME280;3807;49.030;8.714;2022-07-18T13:20:15;99825.78;;;37.96;20.49
7532;BME280;3807;49.030;8.714;2022-07-18T13:22:40;99818.50;;;38.10;17.95
7532;BME280;3807;49.030;8.714;2022-07-18T13:25:08;99821.41;;;38.27;20.32
7532;BME280;3807;49.030;8.714;2022-07-18T13:27:34;99827.09;;;38.30;19.74
7532;BME280;3807;49.030;8.714;2022-07-18T13:29:59;99823.47;;;38.25;20.32
7532;BME280;3807;49.030;8.714;2022-07-18T13:32:27;99822.78;;;38.54;20.07
7532;BME280;3807;49.030;8.714;2022-07-18T13:34:52;99816.50;;;38.49;19.80
7532;BME280;3807;49.030;8.714;2022-07-18T13:37:18;99814.16;;;38.34;19.52
7532;BME280;3807;49.030;8.714;2022-07-18T13:39:43;99818.81;;;38.64;19.45
7532;BME280;3807;49.030;8.714;2022-07-18T13:42:08;99819.44;;;38.77;19.81
7532;BME280;3807;49.030;8.714;2022-07-18T13:44:34;99816.50;;;38.67;19.73